createdAt,value
2022-11-04T00:00:31.483Z,10.50
2022-11-04T00:01:28.191Z,10.51
2022-11-04T00:02:24.996Z,10.43
2022-11-04T00:03:21.630Z,10.42
2022-11-04T00:04:20.258Z,10.44
2022-11-04T00:05:16.931Z,10.33
2022-11-04T00:06:13.575Z,10.17
2022-11-04T00:07:30.068Z,10.22
2022-11-04T00:08:26.719Z,10.33
2022-11-04T00:09:25.711Z,10.15
2022-11-04T00:10:42.267Z,10.36
2022-11-04T00:11:57.785Z,10.47
2022-11-04T00:12:54.466Z,10.25
2022-11-04T00:13:51.358Z,10.37
2022-11-04T00:14:47.924Z,10.39
2022-11-04T00:16:03.113Z,10.32
2022-11-04T00:17:21.052Z,10.37
2022-11-04T00:18:17.622Z,10.16
2022-11-04T00:19:14.347Z,9.99
2022-11-04T00:20:30.101Z,10.18
2022-11-04T00:21:46.030Z,10.66
2022-11-04T00:23:01.567Z,10.68
2022-11-04T00:24:16.422Z,10.57
2022-11-04T00:25:32.168Z,9.91
2022-11-04T00:26:47.313Z,10.19
2022-11-04T00:28:02.437Z,10.23
2022-11-04T00:28:58.977Z,10.25
2022-11-04T00:29:55.637Z,10.24
2022-11-04T00:30:57.486Z,10.36
2022-11-04T00:32:12.621Z,10.38
2022-11-04T00:33:27.465Z,10.51
2022-11-04T00:34:24.005Z,10.49
2022-11-04T00:35:21.314Z,10.47
2022-11-04T00:36:18.537Z,10.47
2022-11-04T00:37:15.061Z,10.47
2022-11-04T00:38:11.601Z,10.44
2022-11-04T00:39:08.151Z,10.41
2022-11-04T00:40:05.309Z,10.47
2022-11-04T00:41:01.866Z,10.76
2022-11-04T00:41:58.505Z,10.46
2022-11-04T00:42:55.048Z,10.39
2022-11-04T00:44:00.419Z,10.32
2022-11-04T00:44:56.974Z,10.24
2022-11-04T00:45:53.512Z,10.22
2022-11-04T00:46:50.109Z,10.31
2022-11-04T00:47:46.665Z,10.21
2022-11-04T00:48:43.205Z,9.99
2022-11-04T00:49:39.798Z,10.37
2022-11-04T00:50:36.476Z,10.44
2022-11-04T00:51:33.121Z,10.70
2022-11-04T00:52:29.683Z,10.52
2022-11-04T00:53:26.245Z,10.30
2022-11-04T00:54:22.917Z,9.79
2022-11-04T00:55:19.496Z,10.12
2022-11-04T00:56:16.040Z,10.12
2022-11-04T00:57:13.745Z,10.24
2022-11-04T00:58:10.501Z,10.15
2022-11-04T00:59:10.334Z,10.32
2022-11-04T01:00:10.717Z,9.91
2022-11-04T01:01:09.476Z,10.08
2022-11-04T01:02:10.944Z,10.15
2022-11-04T01:03:07.925Z,10.32
2022-11-04T01:04:04.904Z,10.24
2022-11-04T01:05:01.502Z,9.89
2022-11-04T01:05:58.538Z,10.33
2022-11-04T01:06:55.533Z,10.42
2022-11-04T01:07:52.226Z,10.07
2022-11-04T01:08:49.267Z,9.95
2022-11-04T01:09:45.813Z,10.14
2022-11-04T01:10:44.808Z,10.22
2022-11-04T01:11:41.391Z,10.43
2022-11-04T01:12:38.137Z,10.32
2022-11-04T01:13:35.536Z,10.30
2022-11-04T01:14:32.121Z,10.25
2022-11-04T01:15:28.647Z,9.73
2022-11-04T01:17:24.034Z,10.25
2022-11-04T01:18:20.994Z,10.40
2022-11-04T01:19:17.990Z,10.48
2022-11-04T01:20:14.609Z,10.58
2022-11-04T01:21:13.367Z,10.62
2022-11-04T01:22:10.285Z,10.10
2022-11-04T01:23:06.840Z,9.90
2022-11-04T01:24:03.991Z,9.86
2022-11-04T01:25:00.537Z,10.03
2022-11-04T01:25:57.118Z,10.08
2022-11-04T01:26:53.667Z,9.69
2022-11-04T01:27:50.255Z,9.54
2022-11-04T01:28:47.496Z,9.52
2022-11-04T01:29:44.093Z,9.61
2022-11-04T01:30:40.702Z,9.73
2022-11-04T01:31:37.312Z,9.66
2022-11-04T01:32:33.875Z,9.40
2022-11-04T01:33:30.505Z,9.51
2022-11-04T01:34:27.108Z,9.91
2022-11-04T01:35:23.683Z,10.10
2022-11-04T01:36:21.924Z,10.17
2022-11-04T01:37:18.483Z,10.02
2022-11-04T01:38:15.033Z,9.83
2022-11-04T01:39:12.140Z,9.87
2022-11-04T01:40:09.163Z,10.02
2022-11-04T01:41:07.949Z,9.88
2022-11-04T01:43:18.191Z,10.19
2022-11-04T01:44:42.500Z,9.98
2022-11-04T01:45:39.046Z,10.29
2022-11-04T01:46:43.809Z,10.16
2022-11-04T01:47:44.135Z,10.06
2022-11-04T01:48:40.818Z,9.89
2022-11-04T01:49:43.357Z,9.92
2022-11-04T01:50:40.591Z,9.78
2022-11-04T01:51:40.136Z,9.78
2022-11-04T01:52:42.658Z,9.53
2022-11-04T01:53:40.623Z,9.80
2022-11-04T01:54:38.861Z,9.98
2022-11-04T01:55:45.231Z,10.08
2022-11-04T01:56:44.340Z,10.08
2022-11-04T01:57:45.200Z,10.23
2022-11-04T01:58:51.201Z,9.53
2022-11-04T01:59:47.826Z,9.77
2022-11-04T02:00:44.870Z,9.93
2022-11-04T02:01:42.849Z,9.72
2022-11-04T02:03:03.754Z,9.94
2022-11-04T02:04:19.597Z,9.76
2022-11-04T02:05:16.385Z,9.74
2022-11-04T02:06:14.137Z,9.79
2022-11-04T02:07:12.134Z,9.85
2022-11-04T02:08:09.732Z,9.84
2022-11-04T02:09:06.357Z,10.07
2022-11-04T02:10:03.720Z,9.93
2022-11-04T02:11:02.922Z,10.06
2022-11-04T02:12:18.560Z,10.08
2022-11-04T02:13:15.160Z,10.07
2022-11-04T02:14:11.770Z,10.02
2022-11-04T02:15:08.904Z,9.93
2022-11-04T02:16:25.282Z,9.87
2022-11-04T02:17:43.354Z,9.92
2022-11-04T02:19:13.618Z,9.97
2022-11-04T02:20:22.569Z,9.99
2022-11-04T02:21:24.957Z,9.99
2022-11-04T02:22:33.549Z,9.73
2022-11-04T02:24:01.952Z,9.93
2022-11-04T02:25:35.751Z,9.90
2022-11-04T02:26:57.715Z,10.11
2022-11-04T02:28:12.538Z,9.99
2022-11-04T02:29:43.230Z,9.86
2022-11-04T02:31:03.301Z,9.56
2022-11-04T02:32:18.831Z,9.45
2022-11-04T02:33:39.523Z,9.32
2022-11-04T02:34:45.084Z,9.17
2022-11-04T02:36:12.586Z,9.38
2022-11-04T02:37:28.709Z,9.35
2022-11-04T02:38:28.116Z,9.49
2022-11-04T02:39:44.351Z,9.69
2022-11-04T02:40:53.887Z,9.48
2022-11-04T02:41:58.625Z,9.53
2022-11-04T02:43:20.112Z,9.53
2022-11-04T02:44:27.552Z,9.36
2022-11-04T02:45:33.120Z,9.35
2022-11-04T02:46:37.058Z,9.57
2022-11-04T02:47:39.977Z,9.18
2022-11-04T02:48:41.363Z,9.28
2022-11-04T02:50:00.827Z,9.41
2022-11-04T02:51:07.226Z,9.27
2022-11-04T02:52:18.847Z,9.35
2022-11-04T02:53:20.695Z,9.19
2022-11-04T02:54:27.417Z,9.24
2022-11-04T02:55:31.113Z,9.17
2022-11-04T02:56:30.386Z,8.97
2022-11-04T02:57:32.232Z,9.28
2022-11-04T02:58:37.297Z,8.97
2022-11-04T02:59:42.181Z,9.29
2022-11-04T03:00:41.221Z,9.52
2022-11-04T03:01:42.094Z,9.36
2022-11-04T03:02:46.337Z,9.46
2022-11-04T03:03:52.991Z,9.60
2022-11-04T03:04:52.573Z,9.39
2022-11-04T03:05:52.596Z,9.37
2022-11-04T03:06:50.920Z,9.42
2022-11-04T03:07:50.208Z,9.20
2022-11-04T03:08:51.306Z,9.07
2022-11-04T03:09:52.018Z,9.15
2022-11-04T03:10:55.124Z,8.82
2022-11-04T03:11:57.683Z,9.34
2022-11-04T03:12:59.625Z,9.45
2022-11-04T03:14:07.802Z,8.94
2022-11-04T03:15:09.880Z,8.92
2022-11-04T03:16:12.982Z,8.99
2022-11-04T03:17:20.652Z,8.88
2022-11-04T03:18:49.543Z,8.81
2022-11-04T03:20:00.219Z,9.12
2022-11-04T03:21:01.810Z,8.77
2022-11-04T03:22:00.214Z,9.03
2022-11-04T03:23:00.119Z,9.07
2022-11-04T03:23:56.957Z,9.22
2022-11-04T03:24:54.024Z,9.04
2022-11-04T03:25:57.796Z,9.11
2022-11-04T03:27:32.776Z,8.82
2022-11-04T03:28:44.728Z,8.77
2022-11-04T03:29:56.616Z,8.87
2022-11-04T03:30:57.405Z,9.27
2022-11-04T03:32:00.162Z,9.12
2022-11-04T03:33:05.942Z,8.99
2022-11-04T03:34:02.798Z,8.67
2022-11-04T03:34:59.635Z,8.94
2022-11-04T03:35:56.839Z,8.73
2022-11-04T03:36:53.519Z,9.03
2022-11-04T03:37:50.305Z,8.94
2022-11-04T03:38:47.196Z,8.98
2022-11-04T03:39:44.151Z,9.05
2022-11-04T03:40:40.944Z,9.02
2022-11-04T03:41:52.673Z,8.94
2022-11-04T03:43:13.113Z,8.70
2022-11-04T03:44:09.920Z,8.29
2022-11-04T03:45:06.953Z,8.54
2022-11-04T03:46:03.706Z,8.89
2022-11-04T03:47:00.356Z,8.61
2022-11-04T03:47:58.133Z,8.22
2022-11-04T03:48:55.737Z,8.53
2022-11-04T03:50:01.391Z,8.37
2022-11-04T03:50:59.173Z,8.02
2022-11-04T03:51:55.828Z,8.45
2022-11-04T03:52:52.764Z,8.47
2022-11-04T03:53:49.710Z,8.69
2022-11-04T03:54:47.576Z,8.48
2022-11-04T03:56:08.693Z,9.06
2022-11-04T03:57:26.641Z,8.78
2022-11-04T03:58:35.328Z,8.74
2022-11-04T03:59:53.432Z,8.99
2022-11-04T04:01:03.500Z,9.09
2022-11-04T04:02:04.552Z,8.79
2022-11-04T04:03:15.963Z,8.05
2022-11-04T04:04:16.961Z,8.67
2022-11-04T04:05:39.490Z,8.70
2022-11-04T04:06:36.885Z,8.63
2022-11-04T04:07:41.933Z,8.72
2022-11-04T04:08:44.392Z,8.65
2022-11-04T04:10:01.637Z,8.57
2022-11-04T04:11:06.157Z,8.46
2022-11-04T04:12:14.047Z,8.72
2022-11-04T04:13:20.130Z,9.00
2022-11-04T04:14:40.199Z,8.99
2022-11-04T04:16:14.089Z,9.07
2022-11-04T04:17:22.238Z,8.79
2022-11-04T04:18:26.611Z,8.60
2022-11-04T04:19:24.199Z,8.72
2022-11-04T04:20:24.972Z,8.95
2022-11-04T04:21:29.031Z,8.76
2022-11-04T04:22:30.791Z,8.91
2022-11-04T04:23:49.548Z,8.83
2022-11-04T04:25:07.841Z,8.86
2022-11-04T04:26:27.863Z,8.61
2022-11-04T04:27:30.996Z,8.92
2022-11-04T04:28:27.706Z,8.72
2022-11-04T04:29:26.369Z,8.82
2022-11-04T04:30:23.137Z,8.78
2022-11-04T04:31:39.478Z,9.07
2022-11-04T04:32:41.639Z,8.95
2022-11-04T04:33:38.900Z,8.86
2022-11-04T04:34:36.172Z,8.70
2022-11-04T04:35:43.300Z,9.01
2022-11-04T04:36:51.808Z,9.02
2022-11-04T04:37:49.209Z,8.99
2022-11-04T04:39:04.424Z,8.86
2022-11-04T04:40:24.820Z,8.82
2022-11-04T04:41:53.984Z,8.80
2022-11-04T04:43:11.425Z,8.39
2022-11-04T04:44:47.253Z,8.59
2022-11-04T04:45:50.444Z,8.70
2022-11-04T04:46:52.244Z,8.51
2022-11-04T04:47:48.976Z,8.38
2022-11-04T04:48:45.709Z,8.21
2022-11-04T04:50:01.578Z,8.40
2022-11-04T04:51:02.113Z,8.58
2022-11-04T04:51:58.684Z,8.60
2022-11-04T04:52:59.051Z,8.56
2022-11-04T04:53:55.676Z,8.43
2022-11-04T04:54:52.242Z,8.51
2022-11-04T04:55:48.823Z,8.65
2022-11-04T04:56:45.357Z,8.64
2022-11-04T04:57:42.303Z,8.79
2022-11-04T04:58:38.874Z,8.60
2022-11-04T04:59:35.421Z,8.65
2022-11-04T05:00:33.325Z,8.63
2022-11-04T05:01:30.057Z,8.44
2022-11-04T05:02:26.867Z,8.61
2022-11-04T05:03:24.717Z,8.28
2022-11-04T05:04:21.269Z,8.10
2022-11-04T05:05:18.925Z,8.53
2022-11-04T05:06:15.573Z,8.50
2022-11-04T05:07:12.316Z,8.21
2022-11-04T05:08:09.476Z,8.14
2022-11-04T05:09:06.225Z,8.51
2022-11-04T05:10:02.947Z,8.69
2022-11-04T05:10:59.553Z,8.75
2022-11-04T05:11:56.106Z,8.72
2022-11-04T05:13:11.035Z,8.74
2022-11-04T05:14:07.602Z,8.55
2022-11-04T05:15:04.540Z,8.55
2022-11-04T05:16:10.573Z,8.61
2022-11-04T05:17:07.205Z,8.56
2022-11-04T05:18:03.967Z,8.54
2022-11-04T05:19:00.580Z,8.47
2022-11-04T05:19:57.130Z,8.64
2022-11-04T05:20:53.658Z,8.73
2022-11-04T05:21:50.204Z,8.64
2022-11-04T05:22:46.733Z,8.51
2022-11-04T05:23:43.349Z,8.45
2022-11-04T05:24:39.889Z,8.60
2022-11-04T05:25:36.427Z,8.76
2022-11-04T05:26:33.132Z,8.30
2022-11-04T05:27:29.753Z,8.36
2022-11-04T05:28:26.506Z,8.66
2022-11-04T05:29:23.248Z,8.71
2022-11-04T05:30:19.958Z,8.61
2022-11-04T05:31:16.971Z,8.63
2022-11-04T05:32:13.531Z,8.66
2022-11-04T05:33:10.598Z,8.70
2022-11-04T05:34:09.949Z,8.48
2022-11-04T05:35:06.845Z,8.71
2022-11-04T05:36:07.507Z,9.11
2022-11-04T05:37:04.127Z,8.97
2022-11-04T05:38:00.793Z,8.85
2022-11-04T05:38:57.347Z,8.49
2022-11-04T05:39:54.042Z,9.03
2022-11-04T05:40:50.578Z,9.02
2022-11-04T05:41:47.150Z,8.98
2022-11-04T05:42:43.830Z,8.92
2022-11-04T05:43:40.373Z,8.93
2022-11-04T05:44:36.936Z,9.03
2022-11-04T05:45:33.492Z,8.94
2022-11-04T05:46:30.683Z,9.07
2022-11-04T05:47:27.245Z,9.01
2022-11-04T05:48:23.831Z,9.28
2022-11-04T05:49:20.372Z,9.20
2022-11-04T05:50:17.056Z,9.14
2022-11-04T05:51:19.257Z,9.25
2022-11-04T05:52:15.900Z,9.35
2022-11-04T05:53:12.758Z,8.95
2022-11-04T05:54:09.457Z,9.38
2022-11-04T05:55:06.552Z,9.34
2022-11-04T05:56:03.167Z,9.42
2022-11-04T05:56:59.742Z,9.04
2022-11-04T05:57:58.085Z,9.15
2022-11-04T05:58:55.302Z,9.44
2022-11-04T05:59:51.868Z,9.62
2022-11-04T06:00:48.433Z,9.58
2022-11-04T06:01:45.096Z,9.67
2022-11-04T06:02:41.815Z,9.30
2022-11-04T06:03:38.639Z,9.41
2022-11-04T06:04:35.299Z,9.26
2022-11-04T06:05:32.237Z,9.42
2022-11-04T06:06:31.456Z,9.38
2022-11-04T06:07:28.018Z,9.32
2022-11-04T06:08:24.607Z,9.49
2022-11-04T06:09:21.169Z,9.42
2022-11-04T06:10:17.968Z,9.35
2022-11-04T06:11:14.533Z,9.66
2022-11-04T06:12:16.303Z,9.26
2022-11-04T06:13:12.881Z,10.01
2022-11-04T06:14:10.284Z,9.82
2022-11-04T06:15:09.027Z,9.93
2022-11-04T06:16:05.848Z,9.41
2022-11-04T06:17:02.791Z,9.79
2022-11-04T06:17:59.482Z,9.89
2022-11-04T06:18:59.956Z,9.76
2022-11-04T06:20:00.149Z,9.85
2022-11-04T06:21:11.256Z,9.89
2022-11-04T06:22:09.937Z,9.65
2022-11-04T06:23:06.565Z,10.09
2022-11-04T06:24:03.405Z,10.18
2022-11-04T06:24:59.943Z,9.97
2022-11-04T06:25:56.573Z,9.92
2022-11-04T06:26:53.513Z,9.93
2022-11-04T06:27:50.174Z,10.07
2022-11-04T06:28:46.741Z,9.78
2022-11-04T06:29:43.327Z,10.08
2022-11-04T06:30:39.875Z,10.07
2022-11-04T06:31:36.485Z,10.06
2022-11-04T06:32:33.312Z,9.99
2022-11-04T06:33:36.337Z,9.78
2022-11-04T06:34:33.472Z,10.14
2022-11-04T06:35:30.142Z,10.29
2022-11-04T06:36:26.729Z,9.86
2022-11-04T06:37:23.319Z,9.97
2022-11-04T06:38:19.960Z,9.75
2022-11-04T06:39:16.809Z,10.17
2022-11-04T06:40:13.401Z,10.24
2022-11-04T06:41:16.468Z,10.30
2022-11-04T06:42:13.112Z,10.31
2022-11-04T06:43:10.241Z,10.39
2022-11-04T06:44:07.623Z,10.21
2022-11-04T06:45:04.814Z,10.53
2022-11-04T06:46:02.556Z,10.81
2022-11-04T06:46:59.288Z,10.71
2022-11-04T06:47:55.872Z,10.66
2022-11-04T06:48:52.909Z,10.49
2022-11-04T06:49:49.459Z,10.60
2022-11-04T06:50:46.171Z,10.77
2022-11-04T06:51:42.773Z,10.79
2022-11-04T06:52:42.291Z,11.18
2022-11-04T06:53:39.350Z,11.00
2022-11-04T06:54:35.968Z,11.17
2022-11-04T06:55:32.576Z,11.30
2022-11-04T06:56:29.221Z,11.01
2022-11-04T06:57:25.807Z,10.95
2022-11-04T06:58:22.537Z,10.82
2022-11-04T06:59:20.760Z,10.80
2022-11-04T07:00:18.165Z,10.82
2022-11-04T07:01:21.249Z,10.78
2022-11-04T07:02:19.236Z,10.96
2022-11-04T07:03:15.964Z,11.01
2022-11-04T07:04:12.598Z,11.20
2022-11-04T07:05:09.363Z,11.14
2022-11-04T07:06:07.931Z,11.05
2022-11-04T07:07:04.498Z,10.90
2022-11-04T07:08:01.130Z,10.94
2022-11-04T07:09:00.658Z,10.95
2022-11-04T07:09:57.229Z,10.91
2022-11-04T07:10:55.309Z,11.00
2022-11-04T07:11:51.889Z,11.02
2022-11-04T07:12:48.425Z,11.13
2022-11-04T07:13:45.277Z,11.19
2022-11-04T07:14:41.978Z,11.29
2022-11-04T07:15:40.108Z,11.51
2022-11-04T07:16:37.103Z,11.53
2022-11-04T07:17:33.736Z,11.35
2022-11-04T07:18:30.467Z,11.50
2022-11-04T07:19:27.136Z,11.56
2022-11-04T07:20:25.032Z,11.22
2022-11-04T07:21:21.845Z,11.71
2022-11-04T07:22:18.411Z,11.52
2022-11-04T07:23:15.329Z,11.62
2022-11-04T07:24:11.962Z,11.64
2022-11-04T07:25:09.431Z,11.68
2022-11-04T07:26:08.100Z,11.55
2022-11-04T07:27:06.642Z,11.55
2022-11-04T07:28:03.283Z,11.22
2022-11-04T07:29:01.044Z,11.56
2022-11-04T07:29:57.640Z,11.87
2022-11-04T07:30:58.997Z,11.78
2022-11-04T07:31:55.700Z,11.64
2022-11-04T07:32:53.102Z,11.90
2022-11-04T07:33:52.643Z,11.85
2022-11-04T07:34:49.187Z,11.95
2022-11-04T07:35:45.876Z,11.86
2022-11-04T07:36:42.574Z,11.82
2022-11-04T07:37:39.336Z,12.10
2022-11-04T07:38:35.996Z,12.08
2022-11-04T07:39:32.569Z,12.15
2022-11-04T07:40:29.111Z,12.25
2022-11-04T07:41:27.210Z,12.36
2022-11-04T07:42:23.825Z,12.42
2022-11-04T07:43:20.416Z,12.66
2022-11-04T07:44:17.007Z,12.57
2022-11-04T07:45:13.622Z,12.69
2022-11-04T07:46:12.929Z,12.71
2022-11-04T07:47:09.573Z,12.95
2022-11-04T07:48:07.312Z,12.99
2022-11-04T07:49:04.674Z,12.67
2022-11-04T07:50:05.268Z,12.47
2022-11-04T07:51:07.266Z,12.85
2022-11-04T07:52:04.165Z,12.94
2022-11-04T07:53:01.075Z,13.04
2022-11-04T07:53:59.133Z,12.78
2022-11-04T07:54:55.710Z,12.97
2022-11-04T07:55:52.720Z,12.99
2022-11-04T07:56:49.278Z,13.40
2022-11-04T07:57:47.161Z,13.17
2022-11-04T07:58:43.735Z,13.47
2022-11-04T07:59:40.386Z,12.64
2022-11-04T08:00:36.975Z,13.23
2022-11-04T08:01:34.277Z,12.88
2022-11-04T08:02:35.016Z,13.30
2022-11-04T08:03:32.128Z,13.22
2022-11-04T08:04:28.915Z,12.91
2022-11-04T08:05:28.246Z,12.91
2022-11-04T08:06:24.850Z,12.90
2022-11-04T08:07:21.561Z,12.61
2022-11-04T08:08:18.168Z,12.83
2022-11-04T08:09:14.818Z,12.89
2022-11-04T08:10:11.499Z,13.09
2022-11-04T08:11:16.851Z,13.28
2022-11-04T08:12:14.184Z,13.24
2022-11-04T08:13:11.192Z,13.36
2022-11-04T08:14:10.082Z,13.19
2022-11-04T08:15:07.394Z,13.79
2022-11-04T08:16:12.434Z,14.04
2022-11-04T08:17:09.913Z,13.81
2022-11-04T08:18:06.521Z,13.99
2022-11-04T08:19:03.129Z,13.84
2022-11-04T08:19:59.695Z,13.77
2022-11-04T08:20:56.293Z,13.67
2022-11-04T08:21:52.916Z,13.91
2022-11-04T08:22:49.497Z,13.87
2022-11-04T08:23:47.775Z,14.14
2022-11-04T08:24:47.302Z,13.72
2022-11-04T08:25:44.847Z,13.93
2022-11-04T08:26:42.271Z,13.99
2022-11-04T08:27:38.916Z,14.05
2022-11-04T08:28:35.566Z,13.87
2022-11-04T08:29:32.416Z,13.99
2022-11-04T08:30:29.005Z,13.92
2022-11-04T08:31:28.655Z,13.76
2022-11-04T08:32:25.220Z,14.14
2022-11-04T08:33:23.520Z,14.47
2022-11-04T08:34:20.958Z,14.42
2022-11-04T08:35:17.723Z,14.71
2022-11-04T08:36:20.710Z,14.77
2022-11-04T08:37:18.104Z,15.07
2022-11-04T08:38:14.686Z,14.68
2022-11-04T08:39:12.281Z,14.72
2022-11-04T08:40:09.550Z,14.87
2022-11-04T08:41:08.903Z,14.23
2022-11-04T08:42:06.754Z,14.46
2022-11-04T08:43:03.834Z,14.62
2022-11-04T08:44:01.138Z,14.93
2022-11-04T08:44:57.814Z,14.89
2022-11-04T08:45:54.479Z,14.80
2022-11-04T08:46:51.555Z,14.76
2022-11-04T08:47:48.370Z,14.33
2022-11-04T08:48:45.493Z,14.38
2022-11-04T08:49:42.176Z,14.66
2022-11-04T08:50:39.070Z,14.61
2022-11-04T08:51:38.174Z,14.79
2022-11-04T08:52:34.747Z,14.64
2022-11-04T08:53:31.413Z,14.77
2022-11-04T08:54:28.016Z,14.98
2022-11-04T08:55:24.643Z,14.92
2022-11-04T08:56:24.827Z,15.08
2022-11-04T08:57:21.410Z,14.74
2022-11-04T08:58:18.582Z,15.45
2022-11-04T08:59:15.192Z,15.58
2022-11-04T09:00:12.361Z,15.47
2022-11-04T09:01:10.896Z,15.14
2022-11-04T09:02:08.052Z,15.46
2022-11-04T09:03:04.985Z,15.34
2022-11-04T09:04:02.381Z,15.37
2022-11-04T09:04:59.196Z,15.34
2022-11-04T09:05:58.143Z,15.35
2022-11-04T09:06:56.339Z,15.59
2022-11-04T09:07:52.997Z,15.33
2022-11-04T09:08:50.840Z,15.58
2022-11-04T09:09:48.199Z,15.94
2022-11-04T09:10:46.925Z,15.84
2022-11-04T09:11:45.220Z,15.49
2022-11-04T09:12:42.752Z,15.91
2022-11-04T09:13:40.066Z,15.67
2022-11-04T09:14:36.974Z,15.78
2022-11-04T09:15:33.574Z,15.48
2022-11-04T09:16:31.816Z,15.72
2022-11-04T09:17:28.389Z,15.88
2022-11-04T09:18:25.025Z,15.46
2022-11-04T09:19:21.582Z,15.80
2022-11-04T09:20:18.286Z,16.24
2022-11-04T09:21:14.866Z,15.97
2022-11-04T09:22:11.486Z,16.28
2022-11-04T09:23:08.617Z,16.14
2022-11-04T09:24:06.178Z,16.76
2022-11-04T09:25:03.038Z,16.69
2022-11-04T09:26:09.254Z,16.70
2022-11-04T09:27:06.461Z,16.27
2022-11-04T09:28:04.598Z,16.18
2022-11-04T09:29:01.427Z,16.36
2022-11-04T09:29:57.981Z,16.36
2022-11-04T09:30:54.576Z,16.71
2022-11-04T09:31:51.225Z,16.50
2022-11-04T09:32:52.545Z,16.40
2022-11-04T09:33:50.480Z,16.67
2022-11-04T09:34:47.023Z,16.62
2022-11-04T09:35:43.663Z,16.47
2022-11-04T09:36:40.251Z,16.69
2022-11-04T09:37:36.812Z,16.30
2022-11-04T09:38:33.586Z,16.40
2022-11-04T09:39:30.127Z,16.51
2022-11-04T09:40:27.934Z,15.76
2022-11-04T09:41:45.914Z,15.55
2022-11-04T09:42:45.254Z,15.78
2022-11-04T09:44:11.785Z,15.61
2022-11-04T09:45:21.518Z,15.43
2022-11-04T09:46:19.992Z,15.13
2022-11-04T09:47:21.692Z,15.18
2022-11-04T09:48:57.810Z,15.67
2022-11-04T09:49:58.477Z,15.83
2022-11-04T09:51:01.389Z,16.44
2022-11-04T09:51:59.436Z,16.96
2022-11-04T09:53:07.555Z,16.88
2022-11-04T09:54:12.521Z,17.06
2022-11-04T09:55:21.138Z,16.74
2022-11-04T09:56:20.337Z,16.54
2022-11-04T09:57:19.165Z,17.18
2022-11-04T09:58:16.087Z,17.05
2022-11-04T09:59:25.896Z,17.19
2022-11-04T10:00:23.202Z,16.60
2022-11-04T10:01:40.220Z,16.51
2022-11-04T10:02:54.632Z,16.42
2022-11-04T10:04:15.470Z,15.95
2022-11-04T10:05:27.663Z,16.07
2022-11-04T10:06:30.678Z,15.98
2022-11-04T10:08:09.103Z,16.23
2022-11-04T10:09:30.114Z,16.52
2022-11-04T10:10:34.050Z,16.60
2022-11-04T10:11:30.624Z,17.12
2022-11-04T10:12:27.233Z,17.09
2022-11-04T10:13:53.145Z,17.09
2022-11-04T10:15:13.603Z,17.58
2022-11-04T10:16:24.899Z,17.14
2022-11-04T10:17:45.882Z,16.92
2022-11-04T10:18:54.574Z,16.46
2022-11-04T10:20:19.390Z,16.50
2022-11-04T10:21:39.776Z,15.96
2022-11-04T10:22:56.066Z,16.08
2022-11-04T10:24:12.383Z,16.14
2022-11-04T10:25:16.489Z,15.96
2022-11-04T10:26:31.005Z,16.26
2022-11-04T10:27:32.183Z,16.79
2022-11-04T10:28:37.562Z,16.78
2022-11-04T10:29:41.048Z,16.49
2022-11-04T10:30:41.240Z,16.25
2022-11-04T10:31:41.002Z,16.02
2022-11-04T10:32:51.592Z,15.95
2022-11-04T10:33:53.657Z,16.39
2022-11-04T10:35:13.987Z,16.67
2022-11-04T10:36:12.900Z,16.12
2022-11-04T10:37:12.572Z,16.92
2022-11-04T10:38:39.476Z,16.97
2022-11-04T10:39:40.062Z,17.11
2022-11-04T10:40:39.936Z,16.99
2022-11-04T10:41:41.001Z,17.06
2022-11-04T10:42:37.628Z,17.31
2022-11-04T10:43:38.260Z,17.62
2022-11-04T10:44:37.189Z,17.66
2022-11-04T10:45:44.987Z,17.72
2022-11-04T10:46:50.513Z,17.92
2022-11-04T10:48:01.287Z,17.93
2022-11-04T10:49:12.594Z,17.45
2022-11-04T10:50:29.902Z,17.51
2022-11-04T10:51:27.252Z,18.17
2022-11-04T10:52:23.901Z,18.11
2022-11-04T10:53:25.979Z,18.04
2022-11-04T10:54:26.806Z,18.02
2022-11-04T10:56:08.061Z,17.90
2022-11-04T10:57:04.759Z,18.21
2022-11-04T10:58:01.657Z,17.74
2022-11-04T10:59:08.751Z,18.25
2022-11-04T11:00:06.383Z,18.54
2022-11-04T11:01:24.830Z,18.49
2022-11-04T11:02:45.856Z,18.19
2022-11-04T11:03:42.498Z,17.86
2022-11-04T11:04:40.460Z,18.20
2022-11-04T11:05:37.152Z,18.61
2022-11-04T11:06:35.907Z,18.62
2022-11-04T11:07:37.058Z,18.88
2022-11-04T11:08:37.274Z,18.94
2022-11-04T11:09:37.293Z,18.67
2022-11-04T11:10:34.878Z,18.75
2022-11-04T11:11:47.711Z,18.85
2022-11-04T11:12:52.281Z,18.27
2022-11-04T11:13:48.978Z,18.49
2022-11-04T11:14:47.620Z,19.00
2022-11-04T11:15:44.611Z,19.21
2022-11-04T11:16:41.226Z,18.89
2022-11-04T11:17:38.579Z,19.11
2022-11-04T11:18:37.217Z,19.29
2022-11-04T11:19:45.921Z,19.33
2022-11-04T11:20:49.045Z,19.63
2022-11-04T11:21:49.124Z,19.23
2022-11-04T11:22:47.483Z,19.13
2022-11-04T11:23:49.202Z,19.10
2022-11-04T11:24:45.766Z,19.35
2022-11-04T11:25:50.332Z,18.94
2022-11-04T11:26:49.845Z,18.52
2022-11-04T11:27:50.235Z,18.53
2022-11-04T11:28:59.910Z,18.68
2022-11-04T11:29:56.561Z,18.59
2022-11-04T11:30:59.059Z,18.77
2022-11-04T11:31:56.545Z,18.79
2022-11-04T11:32:57.613Z,18.76
2022-11-04T11:34:02.527Z,19.03
2022-11-04T11:35:03.498Z,19.31
2022-11-04T11:36:20.800Z,19.54
2022-11-04T11:37:24.737Z,19.68
2022-11-04T11:38:24.473Z,19.65
2022-11-04T11:39:24.501Z,19.85
2022-11-04T11:40:29.266Z,19.72
2022-11-04T11:41:31.731Z,19.86
2022-11-04T11:42:28.450Z,19.50
2022-11-04T11:43:31.464Z,19.38
2022-11-04T11:44:31.656Z,19.58
2022-11-04T11:45:29.513Z,18.90
2022-11-04T11:46:30.446Z,19.18
2022-11-04T11:47:29.776Z,19.57
2022-11-04T11:48:39.927Z,19.93
2022-11-04T11:49:38.135Z,19.67
2022-11-04T11:50:35.764Z,19.88
2022-11-04T11:51:36.651Z,19.88
2022-11-04T11:52:38.182Z,19.96
2022-11-04T11:53:38.262Z,19.95
2022-11-04T11:54:37.745Z,19.87
2022-11-04T11:55:38.538Z,20.04
2022-11-04T11:57:07.265Z,19.89
2022-11-04T12:01:32.247Z,20.28
2022-11-04T12:02:43.139Z,20.58
2022-11-04T12:10:50.356Z,19.32
2022-11-04T12:11:54.429Z,20.07
2022-11-04T12:12:58.511Z,20.34
2022-11-04T12:13:59.757Z,20.13
2022-11-04T12:15:20.282Z,20.01
2022-11-04T12:16:34.373Z,19.89
2022-11-04T12:17:48.160Z,20.05
2022-11-04T12:18:54.702Z,20.11
2022-11-04T12:20:15.071Z,19.84
2022-11-04T12:21:21.355Z,19.95
2022-11-04T12:22:48.681Z,19.85
2022-11-04T12:23:49.585Z,19.32
2022-11-04T12:24:56.385Z,19.05
2022-11-04T12:26:13.093Z,19.28
2022-11-04T12:27:15.493Z,18.89
2022-11-04T12:28:24.373Z,18.56
2022-11-04T12:30:03.787Z,18.80
2022-11-04T12:31:25.116Z,19.13
2022-11-04T12:32:39.657Z,19.50
2022-11-04T12:33:45.421Z,19.33
2022-11-04T12:35:03.153Z,19.30
2022-11-04T12:36:24.194Z,19.42
2022-11-04T12:37:29.614Z,19.74
2022-11-04T12:39:19.906Z,19.79
2022-11-04T12:40:29.081Z,19.83
2022-11-04T12:43:18.681Z,20.00
2022-11-04T12:44:26.336Z,20.03
2022-11-04T12:45:33.331Z,19.62
2022-11-04T12:46:53.951Z,19.66
2022-11-04T12:47:53.344Z,19.77
2022-11-04T12:49:08.685Z,19.52
2022-11-04T12:50:26.285Z,19.69
2022-11-04T12:51:43.962Z,19.66
2022-11-04T12:52:58.725Z,19.76
2022-11-04T12:54:07.336Z,19.57
2022-11-04T12:55:25.750Z,19.68
2022-11-04T12:56:37.432Z,19.66
2022-11-04T12:57:49.868Z,19.48
2022-11-04T12:59:01.288Z,19.51
2022-11-04T13:00:00.838Z,19.21
2022-11-04T13:01:03.482Z,19.15
2022-11-04T13:02:31.014Z,19.08
2022-11-04T13:03:34.244Z,18.69
2022-11-04T13:04:39.091Z,18.89
2022-11-04T13:05:59.666Z,19.24
2022-11-04T13:07:05.055Z,19.02
2022-11-04T13:08:28.222Z,19.01
2022-11-04T13:09:39.677Z,18.64
2022-11-04T13:11:22.637Z,18.47
2022-11-04T13:12:26.126Z,18.71
2022-11-04T13:13:29.872Z,18.43
2022-11-04T13:14:48.152Z,18.52
2022-11-04T13:15:49.317Z,18.54
2022-11-04T13:16:49.914Z,18.40
2022-11-04T13:17:50.017Z,18.74
2022-11-04T13:18:49.205Z,18.45
2022-11-04T13:19:52.329Z,18.28
2022-11-04T13:20:53.036Z,18.31
2022-11-04T13:21:50.314Z,18.09
2022-11-04T13:22:50.749Z,18.30
2022-11-04T13:24:05.737Z,18.29
2022-11-04T13:25:09.369Z,17.83
2022-11-04T13:26:13.022Z,17.86
2022-11-04T13:27:23.781Z,17.89
2022-11-04T13:28:22.605Z,17.67
2022-11-04T13:29:21.662Z,17.80
2022-11-04T13:30:30.118Z,17.74
2022-11-04T13:31:36.978Z,17.93
2022-11-04T13:32:48.710Z,18.15
2022-11-04T13:34:06.857Z,18.23
2022-11-04T13:35:31.832Z,18.33
2022-11-04T13:36:43.954Z,18.10
2022-11-04T13:37:47.745Z,17.60
2022-11-04T13:38:50.410Z,17.66
2022-11-04T13:39:54.750Z,17.10
2022-11-04T13:41:22.253Z,17.42
2022-11-04T13:42:41.527Z,17.43
2022-11-04T13:43:41.875Z,17.62
2022-11-04T13:44:45.374Z,17.68
2022-11-04T13:45:54.065Z,17.82
2022-11-04T13:46:54.649Z,17.65